Rosholt, South Dakota
Current Conditions -  °F | °C
As of 5:16 AM on Thursday 23 Oct 2014 (Local Time) from KETH Reporting Station
Clear Clear  
Wind Chill: 41°   Ceiling: Unl
Heat Index: 45°   Visibility: 10mi
Dew Point: 41°   Wind: 6mph
Humidity: 87%   Direction: 220°SW
Pressure: 29.95"   Gusts: NA
Location:  45.87°N, 96.73°W
Report Text: KETH 231016Z AUTO 22005KT 10SM CLR 07/05 A2995 RMK AO2
Loading
Personal Weather Stations






























Interactive Weather Map
Tropical Storm Tracking
New forecast layout! Learn more

10-Day Weather Forecast

Advertisements
Track Severe Weather on mobile